Denver, Colorado
Traffic Map
Current Weather Conditions
Denver, Colorado
Clear
Clear
10°
Feels Like: 10°
Wind Chill: 10° Ceiling: Unl
Heat Index: 10° Visibility: 10mi
Dew Point: -3° Wind: 1mph
Humidity: 39% Direction: 70° (ENE)
Pressure: 30.15in Gusts: 0mph
Raw Report DataKBKF 030258Z AUTO 07001KT 10SM CLR 10/M03 A3015 RMK AO2 SLP194 T00991034
Traffic Incident Summary
Active as of:
Severity:
Category:
InformationThere was an issue retrieving the traffic information for this location. Please try a different location or try again shortly.
Advertisements
Track Severe Weather on mobile